Udine - Rivolto, Italy

10:05 AM CEST on September 03, 2014 (GMT +0200)
San Marco ,Mereto di Tomba ,Udine | Change Station
CLOSE
Current Station
Personal Weather Station
Location: San Marco, FRIULI-VENEZIA GIULIA
Elevation: 322 ft
Nearby Weather Stations
Active Advisory: Rain

Elev 322 ft 46.06 °N, 13.08 °E | Updated 14 minutes ago

Scattered Clouds
Scattered Clouds
76.6 °F
Feels Like 78 °F
N
2.2
Wind Variable Wind from NNE
Gusts 8.3 mph

Today
High -- | Low -- °F
--% Chance of Precip.
Yesterday
High -- | Low -- °F
Precip. -- in
6:30 AM 7:42 PM
First Quarter, 60% visible
Pressure 29.90 in
Visibility 6.2 miles
Clouds Few 9500 ft
Scattered Clouds 15000 ft
Heat Index 78 °F
Dew Point 63 °F
Humidity 63%
Rainfall 0.00 in
Snow Depth Not available.
UV 3 out of 12
Pollen Not available.
Air Quality Not available.
Flu Activity Not available.
SPECI LIYW 030739Z AUTO 09002KT 9999 FEW095 SCT150 18/17 A2990 RMK AO2 RAE0701DZB0734E0738

More Conditions Fewer Conditions

Pressure 29.90 in
Visibility 6.2 miles
Clouds Few 9500 ft
Scattered Clouds 15000 ft
Heat Index 78 °F
Dew Point 63 °F
Humidity 63%
Rainfall 0.00 in
Snow Depth Not available.
UV 3 out of 12
Pollen Not available.
Air Quality Not available.
Flu Activity Not available.
SPECI LIYW 030739Z AUTO 09002KT 9999 FEW095 SCT150 18/17 A2990 RMK AO2 RAE0701DZB0734E0738

More Conditions Fewer Conditions

10-Day Weather Forecast

Almanac

Astronomy

Sep. 03, 2014 Rise Set
Actual Time 6:30 AM CEST 7:42 PM CEST
Civil Twilight 6:00 AM CEST 8:13 PM CEST
Nautical Twilight 5:22 AM CEST 8:50 PM CEST
Astronomical Twilight 4:43 AM CEST 9:29 PM CEST
Moon 3:18 PM CEST No Moon Set
Length of Visible Light 14h 13m
Length of Day
13h 12m
Tomorrow will be 3m 9s shorter.
First Quarter, 60% of the Moon is Illuminated
Today
First Quarter
Sep 8
Full
Sep 15
Last Quarter
Sep 24
New
Oct 1
First Quarter

Yesterday's Extremes

Country Highs Country Lows

Community

WunderPhotos

Upload Photos

1,749,902 photos uploaded!

Nearby

Snow Depth

Not available.

Earthquake Activity

City Distance Mag. Time & Date
No recent earthquake activity has been reported nearby.
Minimum magnitude displayed is 2.5.

Coastal Water Temperatures

Place Temperature
No Stations Reporting

Nearby Weather Stations